sensor_id;sensor_type;location;lat;lon;timestamp;temperature;humidity
30628;DHT22;17394;50.890;4.724;2023-12-20T00:02:16;5.80;99.90
30628;DHT22;17394;50.890;4.724;2023-12-20T00:04:42;5.80;99.90
30628;DHT22;17394;50.890;4.724;2023-12-20T00:07:08;5.80;99.90
30628;DHT22;17394;50.890;4.724;2023-12-20T00:09:34;5.70;99.90
30628;DHT22;17394;50.890;4.724;2023-12-20T00:12:00;5.70;99.90
30628;DHT22;17394;50.890;4.724;2023-12-20T00:14:26;5.70;99.90
30628;DHT22;17394;50.890;4.724;2023-12-20T00:16:52;5.60;99.90
30628;DHT22;17394;50.890;4.724;2023-12-20T00:19:18;5.60;99.90
30628;DHT22;17394;50.890;4.724;2023-12-20T00:21:43;5.60;99.90
30628;DHT22;17394;50.890;4.724;2023-12-20T00:24:09;5.60;99.90
30628;DHT22;17394;50.890;4.724;2023-12-20T00:26:35;5.60;99.90
30628;DHT22;17394;50.890;4.724;2023-12-20T00:29:01;5.70;99.90
30628;DHT22;17394;50.890;4.724;2023-12-20T00:31:27;5.70;99.90
30628;DHT22;17394;50.890;4.724;2023-12-20T00:33:52;5.90;99.90
30628;DHT22;17394;50.890;4.724;2023-12-20T00:36:18;5.90;99.90
30628;DHT22;17394;50.890;4.724;2023-12-20T00:38:45;6.00;99.90
30628;DHT22;17394;50.890;4.724;2023-12-20T00:41:10;5.90;99.90
30628;DHT22;17394;50.890;4.724;2023-12-20T00:43:36;5.80;99.90
30628;DHT22;17394;50.890;4.724;2023-12-20T00:46:02;5.70;99.90
30628;DHT22;17394;50.890;4.724;2023-12-20T00:48:28;5.70;99.90
30628;DHT22;17394;50.890;4.724;2023-12-20T00:50:55;5.70;99.90
30628;DHT22;17394;50.890;4.724;2023-12-20T00:53:21;5.70;99.90
30628;DHT22;17394;50.890;4.724;2023-12-20T00:55:47;5.70;99.90
30628;DHT22;17394;50.890;4.724;2023-12-20T00:58:14;5.70;99.90
30628;DHT22;17394;50.890;4.724;2023-12-20T01:00:40;5.60;99.90
30628;DHT22;17394;50.890;4.724;2023-12-20T01:03:07;5.60;99.90
30628;DHT22;17394;50.890;4.724;2023-12-20T01:05:33;5.60;99.90
30628;DHT22;17394;50.890;4.724;2023-12-20T01:07:59;5.50;99.90
30628;DHT22;17394;50.890;4.724;2023-12-20T01:10:25;5.50;99.90
30628;DHT22;17394;50.890;4.724;2023-12-20T01:12:53;5.50;99.90
30628;DHT22;17394;50.890;4.724;2023-12-20T01:15:19;5.50;99.90
30628;DHT22;17394;50.890;4.724;2023-12-20T01:17:45;5.40;99.90
30628;DHT22;17394;50.890;4.724;2023-12-20T01:20:11;5.40;99.90
30628;DHT22;17394;50.890;4.724;2023-12-20T01:22:36;5.30;99.90
30628;DHT22;17394;50.890;4.724;2023-12-20T01:25:02;5.20;99.90
30628;DHT22;17394;50.890;4.724;2023-12-20T01:27:28;5.20;99.90
30628;DHT22;17394;50.890;4.724;2023-12-20T01:29:54;5.20;99.90
30628;DHT22;17394;50.890;4.724;2023-12-20T01:32:20;5.20;99.90
30628;DHT22;17394;50.890;4.724;2023-12-20T01:34:46;5.20;99.90
30628;DHT22;17394;50.890;4.724;2023-12-20T01:37:14;5.20;99.90
30628;DHT22;17394;50.890;4.724;2023-12-20T01:39:39;5.30;99.90
30628;DHT22;17394;50.890;4.724;2023-12-20T01:42:05;5.30;99.90
30628;DHT22;17394;50.890;4.724;2023-12-20T01:44:31;5.30;99.90
30628;DHT22;17394;50.890;4.724;2023-12-20T01:46:57;5.30;99.90
30628;DHT22;17394;50.890;4.724;2023-12-20T01:49:23;5.30;99.90
30628;DHT22;17394;50.890;4.724;2023-12-20T01:51:50;5.30;99.90
30628;DHT22;17394;50.890;4.724;2023-12-20T01:54:16;5.30;99.90
30628;DHT22;17394;50.890;4.724;2023-12-20T01:56:43;5.30;99.90
30628;DHT22;17394;50.890;4.724;2023-12-20T01:59:09;5.30;99.90
30628;DHT22;17394;50.890;4.724;2023-12-20T02:01:35;5.30;99.90
30628;DHT22;17394;50.890;4.724;2023-12-20T02:04:01;5.30;99.90
30628;DHT22;17394;50.890;4.724;2023-12-20T02:06:30;5.30;99.90
30628;DHT22;17394;50.890;4.724;2023-12-20T02:08:59;5.30;99.90
30628;DHT22;17394;50.890;4.724;2023-12-20T02:11:25;5.40;99.90
30628;DHT22;17394;50.890;4.724;2023-12-20T02:13:51;5.40;99.90
30628;DHT22;17394;50.890;4.724;2023-12-20T02:16:17;5.30;99.90
30628;DHT22;17394;50.890;4.724;2023-12-20T02:18:44;5.20;99.90
30628;DHT22;17394;50.890;4.724;2023-12-20T02:21:10;5.20;99.90
30628;DHT22;17394;50.890;4.724;2023-12-20T02:23:36;5.10;99.90
30628;DHT22;17394;50.890;4.724;2023-12-20T02:26:03;5.10;99.90
30628;DHT22;17394;50.890;4.724;2023-12-20T02:28:30;5.10;99.90
30628;DHT22;17394;50.890;4.724;2023-12-20T02:30:56;5.00;99.90
30628;DHT22;17394;50.890;4.724;2023-12-20T02:33:22;5.00;99.90
30628;DHT22;17394;50.890;4.724;2023-12-20T02:35:47;5.00;99.90
30628;DHT22;17394;50.890;4.724;2023-12-20T02:38:13;5.00;99.90
30628;DHT22;17394;50.890;4.724;2023-12-20T02:40:39;5.00;99.90
30628;DHT22;17394;50.890;4.724;2023-12-20T02:43:05;5.10;99.90
30628;DHT22;17394;50.890;4.724;2023-12-20T02:45:30;5.20;99.90
30628;DHT22;17394;50.890;4.724;2023-12-20T02:47:56;5.20;99.90
30628;DHT22;17394;50.890;4.724;2023-12-20T02:50:22;5.30;99.90
30628;DHT22;17394;50.890;4.724;2023-12-20T02:52:48;5.40;99.90
30628;DHT22;17394;50.890;4.724;2023-12-20T02:55:14;5.50;99.90
30628;DHT22;17394;50.890;4.724;2023-12-20T02:57:39;5.60;99.90
30628;DHT22;17394;50.890;4.724;2023-12-20T03:00:09;5.60;99.90
30628;DHT22;17394;50.890;4.724;2023-12-20T03:02:35;5.60;99.90
30628;DHT22;17394;50.890;4.724;2023-12-20T03:05:01;5.60;99.90
30628;DHT22;17394;50.890;4.724;2023-12-20T03:07:27;5.50;99.90
30628;DHT22;17394;50.890;4.724;2023-12-20T03:09:53;5.50;99.90
30628;DHT22;17394;50.890;4.724;2023-12-20T03:12:19;5.40;99.90
30628;DHT22;17394;50.890;4.724;2023-12-20T03:14:45;5.30;99.90
30628;DHT22;17394;50.890;4.724;2023-12-20T03:17:10;5.30;99.90
30628;DHT22;17394;50.890;4.724;2023-12-20T03:19:36;5.20;99.90
30628;DHT22;17394;50.890;4.724;2023-12-20T03:22:02;5.20;99.90
30628;DHT22;17394;50.890;4.724;2023-12-20T03:24:28;5.10;99.90
30628;DHT22;17394;50.890;4.724;2023-12-20T03:26:57;5.10;99.90
30628;DHT22;17394;50.890;4.724;2023-12-20T03:29:23;5.00;99.90
30628;DHT22;17394;50.890;4.724;2023-12-20T03:31:49;5.00;99.90
30628;DHT22;17394;50.890;4.724;2023-12-20T03:34:14;5.00;99.90
30628;DHT22;17394;50.890;4.724;2023-12-20T03:36:43;5.10;99.90
30628;DHT22;17394;50.890;4.724;2023-12-20T03:39:09;5.20;99.90
30628;DHT22;17394;50.890;4.724;2023-12-20T03:41:35;5.20;99.90
30628;DHT22;17394;50.890;4.724;2023-12-20T03:44:01;5.30;99.90
30628;DHT22;17394;50.890;4.724;2023-12-20T03:46:27;5.30;99.90
30628;DHT22;17394;50.890;4.724;2023-12-20T03:48:53;5.20;99.90
30628;DHT22;17394;50.890;4.724;2023-12-20T03:51:18;5.30;99.90
30628;DHT22;17394;50.890;4.724;2023-12-20T03:53:44;5.30;99.90
30628;DHT22;17394;50.890;4.724;2023-12-20T03:56:10;5.30;99.90
30628;DHT22;17394;50.890;4.724;2023-12-20T03:58:36;5.20;99.90
30628;DHT22;17394;50.890;4.724;2023-12-20T04:01:02;5.20;99.90
30628;DHT22;17394;50.890;4.724;2023-12-20T04:03:28;5.20;99.90
30628;DHT22;17394;50.890;4.724;2023-12-20T04:05:54;5.10;99.90
30628;DHT22;17394;50.890;4.724;2023-12-20T04:08:20;5.10;99.90
30628;DHT22;17394;50.890;4.724;2023-12-20T04:10:45;5.10;99.90
30628;DHT22;17394;50.890;4.724;2023-12-20T04:13:11;5.10;99.90
30628;DHT22;17394;50.890;4.724;2023-12-20T04:15:37;5.10;99.90
30628;DHT22;17394;50.890;4.724;2023-12-20T04:18:03;5.10;99.90
30628;DHT22;17394;50.890;4.724;2023-12-20T04:20:29;5.10;99.90
30628;DHT22;17394;50.890;4.724;2023-12-20T04:22:54;5.10;99.90
30628;DHT22;17394;50.890;4.724;2023-12-20T04:25:20;5.10;99.90
30628;DHT22;17394;50.890;4.724;2023-12-20T04:27:46;5.00;99.90
30628;DHT22;17394;50.890;4.724;2023-12-20T04:30:12;5.00;99.90
30628;DHT22;17394;50.890;4.724;2023-12-20T04:32:38;5.00;99.90
30628;DHT22;17394;50.890;4.724;2023-12-20T04:35:04;5.00;99.90
30628;DHT22;17394;50.890;4.724;2023-12-20T04:37:30;5.00;99.90
30628;DHT22;17394;50.890;4.724;2023-12-20T04:39:55;5.00;99.90
30628;DHT22;17394;50.890;4.724;2023-12-20T04:42:21;4.90;99.90
30628;DHT22;17394;50.890;4.724;2023-12-20T04:44:47;4.90;99.90
30628;DHT22;17394;50.890;4.724;2023-12-20T04:47:13;4.90;99.90
30628;DHT22;17394;50.890;4.724;2023-12-20T04:49:38;5.00;99.90
30628;DHT22;17394;50.890;4.724;2023-12-20T04:52:04;4.90;99.90
30628;DHT22;17394;50.890;4.724;2023-12-20T04:54:31;4.90;99.90
30628;DHT22;17394;50.890;4.724;2023-12-20T04:56:57;4.90;99.90
30628;DHT22;17394;50.890;4.724;2023-12-20T04:59:22;4.80;99.90
30628;DHT22;17394;50.890;4.724;2023-12-20T05:01:48;4.90;99.90
30628;DHT22;17394;50.890;4.724;2023-12-20T05:04:14;4.90;99.90
30628;DHT22;17394;50.890;4.724;2023-12-20T05:06:40;4.80;99.90
30628;DHT22;17394;50.890;4.724;2023-12-20T05:09:06;4.80;99.90
30628;DHT22;17394;50.890;4.724;2023-12-20T05:11:32;4.90;99.90
30628;DHT22;17394;50.890;4.724;2023-12-20T05:13:58;4.90;99.90
30628;DHT22;17394;50.890;4.724;2023-12-20T05:16:24;4.80;99.90
30628;DHT22;17394;50.890;4.724;2023-12-20T05:18:49;4.70;99.90
30628;DHT22;17394;50.890;4.724;2023-12-20T05:21:16;4.70;99.90
30628;DHT22;17394;50.890;4.724;2023-12-20T05:23:42;4.70;99.90
30628;DHT22;17394;50.890;4.724;2023-12-20T05:26:07;4.70;99.90
30628;DHT22;17394;50.890;4.724;2023-12-20T05:28:33;4.70;99.90
30628;DHT22;17394;50.890;4.724;2023-12-20T05:30:59;4.70;99.90
30628;DHT22;17394;50.890;4.724;2023-12-20T05:33:25;4.70;99.90
30628;DHT22;17394;50.890;4.724;2023-12-20T05:35:50;4.70;99.90
30628;DHT22;17394;50.890;4.724;2023-12-20T05:38:16;4.60;99.90
30628;DHT22;17394;50.890;4.724;2023-12-20T05:40:42;4.60;99.90
30628;DHT22;17394;50.890;4.724;2023-12-20T05:43:08;4.70;99.90
30628;DHT22;17394;50.890;4.724;2023-12-20T05:45:34;4.70;99.90
30628;DHT22;17394;50.890;4.724;2023-12-20T05:48:00;4.70;99.90
30628;DHT22;17394;50.890;4.724;2023-12-20T05:50:26;4.60;99.90
30628;DHT22;17394;50.890;4.724;2023-12-20T05:52:51;4.70;99.90
30628;DHT22;17394;50.890;4.724;2023-12-20T05:55:17;4.70;99.90
30628;DHT22;17394;50.890;4.724;2023-12-20T05:57:43;4.70;99.90
30628;DHT22;17394;50.890;4.724;2023-12-20T06:00:09;4.70;99.90
30628;DHT22;17394;50.890;4.724;2023-12-20T06:02:35;4.70;99.90
30628;DHT22;17394;50.890;4.724;2023-12-20T06:05:04;4.70;99.90
30628;DHT22;17394;50.890;4.724;2023-12-20T06:07:30;4.70;99.90
30628;DHT22;17394;50.890;4.724;2023-12-20T06:09:56;4.70;99.90
30628;DHT22;17394;50.890;4.724;2023-12-20T06:12:22;4.70;99.90
30628;DHT22;17394;50.890;4.724;2023-12-20T06:14:48;4.80;99.90
30628;DHT22;17394;50.890;4.724;2023-12-20T06:17:13;4.70;99.90
30628;DHT22;17394;50.890;4.724;2023-12-20T06:19:39;4.70;99.90
30628;DHT22;17394;50.890;4.724;2023-12-20T06:22:05;4.80;99.90
30628;DHT22;17394;50.890;4.724;2023-12-20T06:24:31;4.80;99.90
30628;DHT22;17394;50.890;4.724;2023-12-20T06:26:59;4.90;99.90
30628;DHT22;17394;50.890;4.724;2023-12-20T06:29:24;4.90;99.90
30628;DHT22;17394;50.890;4.724;2023-12-20T06:31:51;4.90;99.90
30628;DHT22;17394;50.890;4.724;2023-12-20T06:34:17;4.90;99.90
30628;DHT22;17394;50.890;4.724;2023-12-20T06:36:43;5.00;99.90
30628;DHT22;17394;50.890;4.724;2023-12-20T06:39:08;5.00;99.90
30628;DHT22;17394;50.890;4.724;2023-12-20T06:41:34;5.00;99.90
30628;DHT22;17394;50.890;4.724;2023-12-20T06:44:00;5.00;99.90
30628;DHT22;17394;50.890;4.724;2023-12-20T06:46:26;4.90;99.90
30628;DHT22;17394;50.890;4.724;2023-12-20T06:48:52;4.90;99.90
30628;DHT22;17394;50.890;4.724;2023-12-20T06:51:18;4.90;99.90
30628;DHT22;17394;50.890;4.724;2023-12-20T06:53:45;4.80;99.90
30628;DHT22;17394;50.890;4.724;2023-12-20T06:56:11;4.80;99.90
30628;DHT22;17394;50.890;4.724;2023-12-20T06:58:38;4.80;99.90
30628;DHT22;17394;50.890;4.724;2023-12-20T07:01:04;4.70;99.90
30628;DHT22;17394;50.890;4.724;2023-12-20T07:03:31;4.70;99.90
30628;DHT22;17394;50.890;4.724;2023-12-20T07:05:57;4.70;99.90
30628;DHT22;17394;50.890;4.724;2023-12-20T07:08:22;4.70;99.90
30628;DHT22;17394;50.890;4.724;2023-12-20T07:10:48;4.70;99.90
30628;DHT22;17394;50.890;4.724;2023-12-20T07:13:14;4.70;99.90
30628;DHT22;17394;50.890;4.724;2023-12-20T07:15:40;4.70;99.90
30628;DHT22;17394;50.890;4.724;2023-12-20T07:18:06;4.70;99.90
30628;DHT22;17394;50.890;4.724;2023-12-20T07:20:32;4.60;99.90
30628;DHT22;17394;50.890;4.724;2023-12-20T07:22:58;4.60;99.90
30628;DHT22;17394;50.890;4.724;2023-12-20T07:25:24;4.60;99.90
30628;DHT22;17394;50.890;4.724;2023-12-20T07:27:50;4.70;99.90
30628;DHT22;17394;50.890;4.724;2023-12-20T07:30:15;4.70;99.90
30628;DHT22;17394;50.890;4.724;2023-12-20T07:32:41;4.70;99.90
30628;DHT22;17394;50.890;4.724;2023-12-20T07:35:07;4.60;99.90
30628;DHT22;17394;50.890;4.724;2023-12-20T07:37:33;4.60;99.90
30628;DHT22;17394;50.890;4.724;2023-12-20T07:39:59;4.60;99.90
30628;DHT22;17394;50.890;4.724;2023-12-20T07:42:24;4.60;99.90
30628;DHT22;17394;50.890;4.724;2023-12-20T07:44:50;4.60;99.90
30628;DHT22;17394;50.890;4.724;2023-12-20T07:47:16;4.50;99.90
30628;DHT22;17394;50.890;4.724;2023-12-20T07:49:49;4.50;99.90
30628;DHT22;17394;50.890;4.724;2023-12-20T07:52:17;4.50;99.90
30628;DHT22;17394;50.890;4.724;2023-12-20T07:54:43;4.50;99.90
30628;DHT22;17394;50.890;4.724;2023-12-20T07:57:10;4.60;99.90
30628;DHT22;17394;50.890;4.724;2023-12-20T07:59:36;4.60;99.90
30628;DHT22;17394;50.890;4.724;2023-12-20T08:02:02;4.60;99.90
30628;DHT22;17394;50.890;4.724;2023-12-20T08:04:27;4.60;99.90
30628;DHT22;17394;50.890;4.724;2023-12-20T08:06:53;4.60;99.90
30628;DHT22;17394;50.890;4.724;2023-12-20T08:09:19;4.60;99.90
30628;DHT22;17394;50.890;4.724;2023-12-20T08:11:46;4.60;99.90
30628;DHT22;17394;50.890;4.724;2023-12-20T08:14:11;4.60;99.90
30628;DHT22;17394;50.890;4.724;2023-12-20T08:16:37;4.60;99.90
30628;DHT22;17394;50.890;4.724;2023-12-20T08:19:03;4.60;99.90
30628;DHT22;17394;50.890;4.724;2023-12-20T08:21:29;4.60;99.90
30628;DHT22;17394;50.890;4.724;2023-12-20T08:23:55;4.60;99.90
30628;DHT22;17394;50.890;4.724;2023-12-20T08:26:21;4.70;99.90
30628;DHT22;17394;50.890;4.724;2023-12-20T08:28:50;4.70;99.90
30628;DHT22;17394;50.890;4.724;2023-12-20T08:31:16;4.80;99.90
30628;DHT22;17394;50.890;4.724;2023-12-20T08:33:46;4.80;99.90
30628;DHT22;17394;50.890;4.724;2023-12-20T08:36:12;4.90;99.90
30628;DHT22;17394;50.890;4.724;2023-12-20T08:38:38;4.90;99.90
30628;DHT22;17394;50.890;4.724;2023-12-20T08:41:04;5.10;99.90
30628;DHT22;17394;50.890;4.724;2023-12-20T08:43:31;5.20;99.90
30628;DHT22;17394;50.890;4.724;2023-12-20T08:45:57;5.30;99.90
30628;DHT22;17394;50.890;4.724;2023-12-20T08:48:23;5.50;99.90
30628;DHT22;17394;50.890;4.724;2023-12-20T08:50:49;5.50;99.90
30628;DHT22;17394;50.890;4.724;2023-12-20T08:53:17;5.60;99.90
30628;DHT22;17394;50.890;4.724;2023-12-20T08:55:43;5.60;99.90
30628;DHT22;17394;50.890;4.724;2023-12-20T08:58:09;5.60;99.90
30628;DHT22;17394;50.890;4.724;2023-12-20T09:00:35;5.60;99.90
30628;DHT22;17394;50.890;4.724;2023-12-20T09:03:02;5.60;99.90
30628;DHT22;17394;50.890;4.724;2023-12-20T09:05:28;5.60;99.90
30628;DHT22;17394;50.890;4.724;2023-12-20T09:07:54;5.60;99.90
30628;DHT22;17394;50.890;4.724;2023-12-20T09:10:19;5.60;99.90
30628;DHT22;17394;50.890;4.724;2023-12-20T09:12:54;5.60;99.90
30628;DHT22;17394;50.890;4.724;2023-12-20T09:15:26;5.60;99.90
30628;DHT22;17394;50.890;4.724;2023-12-20T09:17:53;5.60;99.90
30628;DHT22;17394;50.890;4.724;2023-12-20T09:20:19;5.60;99.90
30628;DHT22;17394;50.890;4.724;2023-12-20T09:22:45;5.60;99.90
30628;DHT22;17394;50.890;4.724;2023-12-20T09:25:11;5.60;99.90
30628;DHT22;17394;50.890;4.724;2023-12-20T09:27:38;5.70;99.90
30628;DHT22;17394;50.890;4.724;2023-12-20T09:30:04;5.70;99.90
30628;DHT22;17394;50.890;4.724;2023-12-20T09:32:31;5.70;99.90
30628;DHT22;17394;50.890;4.724;2023-12-20T09:34:57;5.80;99.90
30628;DHT22;17394;50.890;4.724;2023-12-20T09:37:26;5.80;99.90
30628;DHT22;17394;50.890;4.724;2023-12-20T09:39:51;5.90;99.90
30628;DHT22;17394;50.890;4.724;2023-12-20T09:45:08;6.00;99.90
30628;DHT22;17394;50.890;4.724;2023-12-20T09:47:37;6.10;99.90
30628;DHT22;17394;50.890;4.724;2023-12-20T09:50:03;6.10;99.90
30628;DHT22;17394;50.890;4.724;2023-12-20T09:52:29;6.20;99.90
30628;DHT22;17394;50.890;4.724;2023-12-20T09:54:55;6.40;99.90
30628;DHT22;17394;50.890;4.724;2023-12-20T09:57:25;6.30;99.90
30628;DHT22;17394;50.890;4.724;2023-12-20T09:59:51;6.40;99.90
30628;DHT22;17394;50.890;4.724;2023-12-20T10:02:21;6.50;99.90
30628;DHT22;17394;50.890;4.724;2023-12-20T10:04:49;6.60;99.90
30628;DHT22;17394;50.890;4.724;2023-12-20T10:07:15;6.70;99.90
30628;DHT22;17394;50.890;4.724;2023-12-20T10:09:42;6.60;99.90
30628;DHT22;17394;50.890;4.724;2023-12-20T10:12:08;6.60;99.90
30628;DHT22;17394;50.890;4.724;2023-12-20T10:14:34;6.60;99.90
30628;DHT22;17394;50.890;4.724;2023-12-20T10:17:03;6.60;99.90
30628;DHT22;17394;50.890;4.724;2023-12-20T10:19:29;6.70;99.90
30628;DHT22;17394;50.890;4.724;2023-12-20T10:21:55;6.80;99.90
30628;DHT22;17394;50.890;4.724;2023-12-20T10:24:21;6.80;99.90
30628;DHT22;17394;50.890;4.724;2023-12-20T10:26:47;6.90;99.90
30628;DHT22;17394;50.890;4.724;2023-12-20T10:29:13;6.80;99.90
30628;DHT22;17394;50.890;4.724;2023-12-20T10:31:39;6.90;99.90
30628;DHT22;17394;50.890;4.724;2023-12-20T10:34:04;6.90;99.90
30628;DHT22;17394;50.890;4.724;2023-12-20T10:36:33;6.90;99.90
30628;DHT22;17394;50.890;4.724;2023-12-20T10:38:59;7.00;99.90
30628;DHT22;17394;50.890;4.724;2023-12-20T10:41:30;7.10;99.90
30628;DHT22;17394;50.890;4.724;2023-12-20T10:44:03;7.10;99.90
30628;DHT22;17394;50.890;4.724;2023-12-20T10:46:33;7.20;99.90
30628;DHT22;17394;50.890;4.724;2023-12-20T10:49:02;7.20;99.90
30628;DHT22;17394;50.890;4.724;2023-12-20T10:51:28;7.20;99.90
30628;DHT22;17394;50.890;4.724;2023-12-20T10:53:57;7.20;99.90
30628;DHT22;17394;50.890;4.724;2023-12-20T10:56:23;7.20;99.90
30628;DHT22;17394;50.890;4.724;2023-12-20T10:58:49;7.20;99.90
30628;DHT22;17394;50.890;4.724;2023-12-20T11:01:16;7.30;99.90
30628;DHT22;17394;50.890;4.724;2023-12-20T11:03:50;7.30;99.90
30628;DHT22;17394;50.890;4.724;2023-12-20T11:06:27;7.30;99.90
30628;DHT22;17394;50.890;4.724;2023-12-20T11:14:50;7.40;99.90
30628;DHT22;17394;50.890;4.724;2023-12-20T11:17:16;7.50;99.90
30628;DHT22;17394;50.890;4.724;2023-12-20T11:22:20;7.60;99.90
30628;DHT22;17394;50.890;4.724;2023-12-20T11:24:46;7.60;99.90
30628;DHT22;17394;50.890;4.724;2023-12-20T11:27:13;7.60;99.90
30628;DHT22;17394;50.890;4.724;2023-12-20T11:29:39;7.60;99.90
30628;DHT22;17394;50.890;4.724;2023-12-20T11:32:28;7.60;99.90
30628;DHT22;17394;50.890;4.724;2023-12-20T11:37:37;7.60;99.90
30628;DHT22;17394;50.890;4.724;2023-12-20T11:40:08;7.60;99.90
30628;DHT22;17394;50.890;4.724;2023-12-20T11:42:48;7.60;99.90
30628;DHT22;17394;50.890;4.724;2023-12-20T11:45:16;7.60;99.90
30628;DHT22;17394;50.890;4.724;2023-12-20T11:47:46;7.60;99.90
30628;DHT22;17394;50.890;4.724;2023-12-20T11:50:12;7.60;99.90
30628;DHT22;17394;50.890;4.724;2023-12-20T11:52:38;7.60;99.90
30628;DHT22;17394;50.890;4.724;2023-12-20T11:55:04;7.70;99.90
30628;DHT22;17394;50.890;4.724;2023-12-20T11:57:31;7.70;99.90
30628;DHT22;17394;50.890;4.724;2023-12-20T11:59:57;7.70;99.90
30628;DHT22;17394;50.890;4.724;2023-12-20T12:02:27;7.80;99.90
30628;DHT22;17394;50.890;4.724;2023-12-20T12:04:52;7.90;99.90
30628;DHT22;17394;50.890;4.724;2023-12-20T12:07:19;7.90;99.90
30628;DHT22;17394;50.890;4.724;2023-12-20T12:09:45;7.90;99.90
30628;DHT22;17394;50.890;4.724;2023-12-20T12:12:12;7.90;99.90
30628;DHT22;17394;50.890;4.724;2023-12-20T12:14:39;7.80;99.90
30628;DHT22;17394;50.890;4.724;2023-12-20T12:17:12;7.80;99.90
30628;DHT22;17394;50.890;4.724;2023-12-20T12:19:40;7.70;99.90
30628;DHT22;17394;50.890;4.724;2023-12-20T12:22:13;7.70;99.90
30628;DHT22;17394;50.890;4.724;2023-12-20T12:24:46;7.70;99.90
30628;DHT22;17394;50.890;4.724;2023-12-20T12:27:13;7.70;99.90
30628;DHT22;17394;50.890;4.724;2023-12-20T12:30:01;7.70;99.90
30628;DHT22;17394;50.890;4.724;2023-12-20T12:32:28;7.70;99.90
30628;DHT22;17394;50.890;4.724;2023-12-20T12:34:54;7.80;99.90
30628;DHT22;17394;50.890;4.724;2023-12-20T12:37:20;7.80;99.90
30628;DHT22;17394;50.890;4.724;2023-12-20T12:39:55;7.80;99.90
30628;DHT22;17394;50.890;4.724;2023-12-20T12:42:21;7.80;99.90
30628;DHT22;17394;50.890;4.724;2023-12-20T12:44:47;7.80;99.90
30628;DHT22;17394;50.890;4.724;2023-12-20T12:47:13;7.80;99.90
30628;DHT22;17394;50.890;4.724;2023-12-20T12:49:40;7.80;99.90
30628;DHT22;17394;50.890;4.724;2023-12-20T12:52:06;7.90;99.90
30628;DHT22;17394;50.890;4.724;2023-12-20T12:54:32;7.90;99.90
30628;DHT22;17394;50.890;4.724;2023-12-20T12:56:57;8.00;99.90
30628;DHT22;17394;50.890;4.724;2023-12-20T12:59:23;7.90;99.90
30628;DHT22;17394;50.890;4.724;2023-12-20T13:01:49;7.90;99.90
30628;DHT22;17394;50.890;4.724;2023-12-20T13:04:15;7.90;99.90
30628;DHT22;17394;50.890;4.724;2023-12-20T13:06:41;7.90;99.90
30628;DHT22;17394;50.890;4.724;2023-12-20T13:09:07;7.90;99.90
30628;DHT22;17394;50.890;4.724;2023-12-20T13:11:35;7.80;99.90
30628;DHT22;17394;50.890;4.724;2023-12-20T13:14:01;7.80;99.90
30628;DHT22;17394;50.890;4.724;2023-12-20T13:16:30;7.80;99.90
30628;DHT22;17394;50.890;4.724;2023-12-20T13:18:56;7.80;99.90
30628;DHT22;17394;50.890;4.724;2023-12-20T13:21:22;7.80;99.90
30628;DHT22;17394;50.890;4.724;2023-12-20T13:23:47;7.80;99.90
30628;DHT22;17394;50.890;4.724;2023-12-20T13:26:14;7.90;99.90
30628;DHT22;17394;50.890;4.724;2023-12-20T13:28:39;7.90;99.90
30628;DHT22;17394;50.890;4.724;2023-12-20T13:31:05;8.00;99.90
30628;DHT22;17394;50.890;4.724;2023-12-20T13:33:31;8.00;99.90
30628;DHT22;17394;50.890;4.724;2023-12-20T13:35:57;8.00;99.90
30628;DHT22;17394;50.890;4.724;2023-12-20T13:38:23;8.00;99.90
30628;DHT22;17394;50.890;4.724;2023-12-20T13:40:49;8.10;99.90
30628;DHT22;17394;50.890;4.724;2023-12-20T13:43:15;8.10;99.90
30628;DHT22;17394;50.890;4.724;2023-12-20T13:45:46;8.10;99.90
30628;DHT22;17394;50.890;4.724;2023-12-20T13:48:12;8.10;99.90
30628;DHT22;17394;50.890;4.724;2023-12-20T13:50:38;8.10;99.90
30628;DHT22;17394;50.890;4.724;2023-12-20T13:53:03;8.10;99.90
30628;DHT22;17394;50.890;4.724;2023-12-20T13:55:29;8.00;99.90
30628;DHT22;17394;50.890;4.724;2023-12-20T13:57:56;8.00;99.90
30628;DHT22;17394;50.890;4.724;2023-12-20T14:00:23;8.10;99.90
30628;DHT22;17394;50.890;4.724;2023-12-20T14:02:49;8.10;99.90
30628;DHT22;17394;50.890;4.724;2023-12-20T14:05:16;8.10;99.90
30628;DHT22;17394;50.890;4.724;2023-12-20T14:07:46;8.10;99.90
30628;DHT22;17394;50.890;4.724;2023-12-20T14:10:12;8.10;99.90
30628;DHT22;17394;50.890;4.724;2023-12-20T14:12:41;8.10;99.90
30628;DHT22;17394;50.890;4.724;2023-12-20T14:15:07;8.10;99.90
30628;DHT22;17394;50.890;4.724;2023-12-20T14:17:40;8.00;99.90
30628;DHT22;17394;50.890;4.724;2023-12-20T14:20:08;8.10;99.90
30628;DHT22;17394;50.890;4.724;2023-12-20T14:22:34;8.10;99.90
30628;DHT22;17394;50.890;4.724;2023-12-20T14:25:00;8.10;99.90
30628;DHT22;17394;50.890;4.724;2023-12-20T14:27:27;8.10;99.90
30628;DHT22;17394;50.890;4.724;2023-12-20T14:29:55;8.20;99.90
30628;DHT22;17394;50.890;4.724;2023-12-20T14:32:21;8.20;99.90
30628;DHT22;17394;50.890;4.724;2023-12-20T14:34:47;8.30;99.90
30628;DHT22;17394;50.890;4.724;2023-12-20T14:37:13;8.30;99.90
30628;DHT22;17394;50.890;4.724;2023-12-20T14:39:39;8.30;99.90
30628;DHT22;17394;50.890;4.724;2023-12-20T14:42:10;8.30;99.90
30628;DHT22;17394;50.890;4.724;2023-12-20T14:44:39;8.30;99.90
30628;DHT22;17394;50.890;4.724;2023-12-20T14:47:06;8.30;99.90
30628;DHT22;17394;50.890;4.724;2023-12-20T14:49:32;8.40;99.90
30628;DHT22;17394;50.890;4.724;2023-12-20T14:51:58;8.40;99.90
30628;DHT22;17394;50.890;4.724;2023-12-20T14:54:24;8.40;99.90
30628;DHT22;17394;50.890;4.724;2023-12-20T14:56:50;8.30;99.90
30628;DHT22;17394;50.890;4.724;2023-12-20T14:59:16;8.30;99.90
30628;DHT22;17394;50.890;4.724;2023-12-20T15:01:43;8.30;99.90
30628;DHT22;17394;50.890;4.724;2023-12-20T15:04:09;8.30;99.90
30628;DHT22;17394;50.890;4.724;2023-12-20T15:06:36;8.30;99.90
30628;DHT22;17394;50.890;4.724;2023-12-20T15:09:02;8.30;99.90
30628;DHT22;17394;50.890;4.724;2023-12-20T15:11:33;8.30;99.90
30628;DHT22;17394;50.890;4.724;2023-12-20T15:13:58;8.30;99.90
30628;DHT22;17394;50.890;4.724;2023-12-20T15:16:26;8.30;99.90
30628;DHT22;17394;50.890;4.724;2023-12-20T15:18:52;8.30;99.90
30628;DHT22;17394;50.890;4.724;2023-12-20T15:21:19;8.30;99.90
30628;DHT22;17394;50.890;4.724;2023-12-20T15:23:45;8.30;99.90
30628;DHT22;17394;50.890;4.724;2023-12-20T15:26:21;8.30;99.90
30628;DHT22;17394;50.890;4.724;2023-12-20T15:28:47;8.30;99.90
30628;DHT22;17394;50.890;4.724;2023-12-20T15:31:13;8.30;99.90
30628;DHT22;17394;50.890;4.724;2023-12-20T15:33:42;8.30;99.90
30628;DHT22;17394;50.890;4.724;2023-12-20T15:36:08;8.30;99.90
30628;DHT22;17394;50.890;4.724;2023-12-20T15:38:34;8.30;99.90
30628;DHT22;17394;50.890;4.724;2023-12-20T15:41:00;8.30;99.90
30628;DHT22;17394;50.890;4.724;2023-12-20T15:43:27;8.30;99.90
30628;DHT22;17394;50.890;4.724;2023-12-20T15:45:53;8.40;99.90
30628;DHT22;17394;50.890;4.724;2023-12-20T15:48:18;8.40;99.90
30628;DHT22;17394;50.890;4.724;2023-12-20T15:50:45;8.40;99.90
30628;DHT22;17394;50.890;4.724;2023-12-20T15:53:11;8.40;99.90
30628;DHT22;17394;50.890;4.724;2023-12-20T15:55:37;8.40;99.90